Pagrindinis puslapis
METAR-TAF:

METAR-TAF

Oro uostai :

Kuritiba, Parana, Brazilija

platuma: 25-31S, ilguma: 049-10W, Aukštis: 908 m

Dabartinis oras

Ataskaita buvo paskelbta 51 minutes, ne 21:00 UTC
Vėjas 9 kt iš Šiaurės
Temperatūra 24°C
Drėgmė 65%
Slėgis 1016 hPa
Matomumas 10 km arba daugiau
Mažai debesys ne aukštis 2000 ft
Su prošvaistėmis ne aukštis 10000 ft

METAR: SBCT 152100Z 35009KT 9999 FEW020 BKN100 24/17 Q1016

Laikas: 18:51 (21:51 UTC)

Prognozė

Ataskaita buvo paskelbta 6 valandos ir 36 minutes, ne 15:15 UTC
Prognozė galioja nuo 15 metu 18 UTC su 16 metu 18 UTC
Vėjas 7 kt iš Šiaurės/Šiaurės Vakarų
Matomumas 10 km arba daugiau
Išsisklaidę debesys ne aukštis 3000 ft

TAF: SBCT 151515Z 1518/1618 34007KT 9999 SCT030 TX24/1518Z TN18/1608Z RMK PDW

Orai ataskaitas ir orų prognozės (METAR, TAF).

turimą stotys yra geltonos ir raudonos taškus žemėlapyje.

Perkelti pele per norėdami pamatyti stoties vardą.

Tada spustelėkite, norėdami matyti oro stebėjimo ir prognozės.

Norėdami pakeisti žemėlapį: spustelėkite ant žalios mygtukų su juodo kryžiaus žemyn,; žalią mygtuką su brūkšneliu, jei norite nutolinti; arba žalių rodyklių gretimoms žemėlapius.


METAR-TAF: